createdAt,value
2016-05-18T00:00:56.744Z,967.36
2016-05-18T00:01:56.746Z,967.36
2016-05-18T00:02:56.750Z,967.38
2016-05-18T00:03:56.736Z,967.38
2016-05-18T00:04:56.739Z,967.38
2016-05-18T00:05:56.742Z,967.35
2016-05-18T00:06:56.744Z,967.35
2016-05-18T00:07:56.732Z,967.37
2016-05-18T00:08:56.734Z,967.39
2016-05-18T00:09:56.737Z,967.33
2016-05-18T00:10:56.740Z,967.32
2016-05-18T00:11:56.743Z,967.31
2016-05-18T00:12:56.745Z,967.29
2016-05-18T00:13:56.732Z,967.29
2016-05-18T00:14:56.735Z,967.3
2016-05-18T00:15:56.737Z,967.26
2016-05-18T00:16:56.740Z,967.24
2016-05-18T00:17:56.727Z,967.23
2016-05-18T00:18:56.730Z,967.2
2016-05-18T00:19:57.373Z,967.23
2016-05-18T00:20:56.735Z,967.18
2016-05-18T00:21:56.737Z,967.15
2016-05-18T00:22:56.725Z,967.13
2016-05-18T00:23:56.728Z,967.1
2016-05-18T00:24:56.730Z,967.11
2016-05-18T00:25:56.734Z,967.12
2016-05-18T00:26:56.736Z,967.11
2016-05-18T00:27:56.738Z,967.08
2016-05-18T00:28:56.741Z,967.08
2016-05-18T00:29:56.728Z,967.09
2016-05-18T00:30:56.731Z,967.06
2016-05-18T00:31:56.733Z,967.06
2016-05-18T00:32:56.737Z,967.03
2016-05-18T00:33:56.723Z,967.03
2016-05-18T00:34:56.725Z,967.03
2016-05-18T00:35:56.728Z,967
2016-05-18T00:36:56.731Z,967.01
2016-05-18T00:37:56.733Z,967.04
2016-05-18T00:38:56.722Z,966.99
2016-05-18T00:39:56.724Z,967.03
2016-05-18T00:40:56.726Z,966.98
2016-05-18T00:41:56.714Z,967
2016-05-18T00:42:56.716Z,966.95
2016-05-18T00:43:56.718Z,966.94
2016-05-18T00:44:56.722Z,967.01
2016-05-18T00:45:56.724Z,966.97
2016-05-18T00:46:56.727Z,966.94
2016-05-18T00:47:56.714Z,966.93
2016-05-18T00:48:56.717Z,966.91
2016-05-18T00:49:56.719Z,966.94
2016-05-18T00:50:56.723Z,966.92
2016-05-18T00:51:56.725Z,966.91
2016-05-18T00:52:56.712Z,966.92
2016-05-18T00:53:56.715Z,966.91
2016-05-18T00:54:56.717Z,966.91
2016-05-18T00:55:56.720Z,966.89
2016-05-18T00:56:56.706Z,966.87
2016-05-18T00:57:56.709Z,966.91
2016-05-18T00:58:56.712Z,966.92
2016-05-18T00:59:56.715Z,966.94
2016-05-18T01:00:56.717Z,966.88
2016-05-18T01:01:56.720Z,966.93
2016-05-18T01:02:56.708Z,966.9
2016-05-18T01:03:56.710Z,966.92
2016-05-18T01:04:56.713Z,966.92
2016-05-18T01:05:56.716Z,966.9
2016-05-18T01:06:56.719Z,966.91
2016-05-18T01:07:56.705Z,966.84
2016-05-18T01:08:56.708Z,966.84
2016-05-18T01:09:56.711Z,966.83
2016-05-18T01:10:56.713Z,966.79
2016-05-18T01:11:56.716Z,966.79
2016-05-18T01:12:56.702Z,966.79
2016-05-18T01:13:56.706Z,966.74
2016-05-18T01:14:56.708Z,966.75
2016-05-18T01:15:56.710Z,966.72
2016-05-18T01:16:56.698Z,966.75
2016-05-18T01:17:56.701Z,966.72
2016-05-18T01:18:56.704Z,966.7
2016-05-18T01:19:56.706Z,966.73
2016-05-18T01:20:56.710Z,966.71
2016-05-18T01:21:56.696Z,966.64
2016-05-18T01:22:56.699Z,966.66
2016-05-18T01:23:56.701Z,966.65
2016-05-18T01:24:56.703Z,966.62
2016-05-18T01:25:56.707Z,966.62
2016-05-18T01:26:56.694Z,966.61
2016-05-18T01:27:56.697Z,966.67
2016-05-18T01:28:56.700Z,966.63
2016-05-18T01:29:56.702Z,966.62
2016-05-18T01:30:56.705Z,966.63
2016-05-18T01:31:56.691Z,966.6
2016-05-18T01:32:56.695Z,966.58
2016-05-18T01:33:56.697Z,966.61
2016-05-18T01:34:56.700Z,966.6
2016-05-18T01:35:56.686Z,966.6
2016-05-18T01:36:56.689Z,966.63
2016-05-18T01:37:56.692Z,966.61
2016-05-18T01:38:56.694Z,966.61
2016-05-18T01:39:56.697Z,966.63
2016-05-18T01:40:56.685Z,966.56
2016-05-18T01:41:56.688Z,966.59
2016-05-18T01:42:56.705Z,966.58
2016-05-18T01:43:56.693Z,966.58
2016-05-18T01:44:56.696Z,966.54
2016-05-18T01:45:56.682Z,966.59
2016-05-18T01:46:56.685Z,966.62
2016-05-18T01:47:56.688Z,966.58
2016-05-18T01:48:56.691Z,966.62
2016-05-18T01:49:56.677Z,966.61
2016-05-18T01:50:56.680Z,966.57
2016-05-18T01:51:56.682Z,966.58
2016-05-18T01:52:56.685Z,966.57
2016-05-18T01:53:56.688Z,966.58
2016-05-18T01:54:56.690Z,966.57
2016-05-18T01:55:56.678Z,966.57
2016-05-18T01:56:56.681Z,966.53
2016-05-18T01:57:56.684Z,966.51
2016-05-18T01:58:56.670Z,966.55
2016-05-18T01:59:56.673Z,966.49
2016-05-18T02:00:56.676Z,966.5
2016-05-18T02:01:56.678Z,966.49
2016-05-18T02:02:56.682Z,966.45
2016-05-18T02:03:56.684Z,966.44
2016-05-18T02:04:56.671Z,966.4
2016-05-18T02:05:56.674Z,966.43
2016-05-18T02:06:56.677Z,966.4
2016-05-18T02:07:57.100Z,966.4
2016-05-18T02:08:56.682Z,966.4
2016-05-18T02:09:56.669Z,966.37
2016-05-18T02:10:56.671Z,966.35
2016-05-18T02:11:56.675Z,966.38
2016-05-18T02:12:56.661Z,966.35
2016-05-18T02:13:56.663Z,966.32
2016-05-18T02:14:56.667Z,966.34
2016-05-18T02:15:56.669Z,966.35
2016-05-18T02:16:56.672Z,966.36
2016-05-18T02:17:56.659Z,966.34
2016-05-18T02:18:56.662Z,966.4
2016-05-18T02:19:56.665Z,966.34
2016-05-18T02:20:56.667Z,966.34
2016-05-18T02:21:56.654Z,966.33
2016-05-18T02:22:56.657Z,966.35
2016-05-18T02:23:56.660Z,966.31
2016-05-18T02:24:56.662Z,966.28
2016-05-18T02:25:56.665Z,966.29
2016-05-18T02:26:56.652Z,966.31
2016-05-18T02:27:56.670Z,966.26
2016-05-18T02:28:56.657Z,966.24
2016-05-18T02:29:56.659Z,966.24
2016-05-18T02:30:56.663Z,966.25
2016-05-18T02:31:56.650Z,966.23
2016-05-18T02:32:56.653Z,966.22
2016-05-18T02:33:56.655Z,966.24
2016-05-18T02:34:56.658Z,966.21
2016-05-18T02:35:56.661Z,966.18
2016-05-18T02:36:56.648Z,966.2
2016-05-18T02:37:56.650Z,966.18
2016-05-18T02:38:56.653Z,966.19
2016-05-18T02:39:56.656Z,966.15
2016-05-18T02:40:56.643Z,966.12
2016-05-18T02:41:56.646Z,966.11
2016-05-18T02:42:56.649Z,966.13
2016-05-18T02:43:56.651Z,966.13
2016-05-18T02:44:56.654Z,966.07
2016-05-18T02:45:56.640Z,966.09
2016-05-18T02:46:56.660Z,966.07
2016-05-18T02:47:56.646Z,966.03
2016-05-18T02:48:56.649Z,966.01
2016-05-18T02:49:56.635Z,966
2016-05-18T02:50:56.639Z,965.98
2016-05-18T02:51:56.641Z,965.98
2016-05-18T02:52:56.659Z,966.01
2016-05-18T02:53:56.647Z,966
2016-05-18T02:54:56.634Z,966.02
2016-05-18T02:55:56.636Z,966.01
2016-05-18T02:56:56.639Z,966
2016-05-18T02:57:56.642Z,965.98
2016-05-18T02:58:56.645Z,966.01
2016-05-18T02:59:56.631Z,966.01
2016-05-18T03:00:56.634Z,965.98
2016-05-18T03:01:56.637Z,965.97
2016-05-18T03:02:56.639Z,966.01
2016-05-18T03:03:56.626Z,966.01
2016-05-18T03:04:56.629Z,965.98
2016-05-18T03:05:56.632Z,966
2016-05-18T03:06:56.634Z,965.99
2016-05-18T03:07:56.622Z,965.98
2016-05-18T03:08:56.624Z,965.97
2016-05-18T03:09:56.627Z,965.98
2016-05-18T03:10:56.630Z,965.97
2016-05-18T03:11:56.616Z,965.98
2016-05-18T03:12:56.620Z,965.94
2016-05-18T03:13:56.622Z,965.97
2016-05-18T03:14:56.624Z,965.98
2016-05-18T03:15:56.627Z,965.99
2016-05-18T03:16:56.630Z,965.96
2016-05-18T03:17:56.618Z,966.01
2016-05-18T03:18:56.620Z,966.02
2016-05-18T03:19:56.624Z,965.99
2016-05-18T03:20:56.626Z,965.98
2016-05-18T03:21:56.628Z,965.96
2016-05-18T03:22:56.740Z,966
2016-05-18T03:23:56.617Z,966.02
2016-05-18T03:24:56.621Z,966.01
2016-05-18T03:25:56.623Z,965.99
2016-05-18T03:26:56.610Z,965.96
2016-05-18T03:27:56.613Z,965.99
2016-05-18T03:28:56.615Z,966
2016-05-18T03:29:56.618Z,965.94
2016-05-18T03:30:56.606Z,966
2016-05-18T03:31:56.609Z,965.92
2016-05-18T03:32:56.611Z,965.94
2016-05-18T03:33:56.614Z,965.93
2016-05-18T03:34:56.616Z,965.9
2016-05-18T03:35:56.603Z,965.9
2016-05-18T03:36:56.606Z,965.9
2016-05-18T03:37:56.608Z,965.9
2016-05-18T03:38:56.596Z,965.88
2016-05-18T03:39:56.597Z,965.9
2016-05-18T03:40:56.600Z,965.89
2016-05-18T03:41:56.603Z,965.83
2016-05-18T03:42:56.606Z,965.8
2016-05-18T03:43:56.594Z,965.8
2016-05-18T03:44:56.597Z,965.79
2016-05-18T03:45:56.599Z,965.8
2016-05-18T03:46:56.602Z,965.8
2016-05-18T03:47:56.605Z,965.84
2016-05-18T03:48:56.591Z,965.81
2016-05-18T03:49:56.594Z,965.83
2016-05-18T03:50:56.597Z,965.79
2016-05-18T03:51:56.599Z,965.81
2016-05-18T03:52:56.602Z,965.8
2016-05-18T03:53:56.589Z,965.84
2016-05-18T03:54:56.593Z,965.81
2016-05-18T03:55:56.579Z,965.81
2016-05-18T03:56:56.582Z,965.84
2016-05-18T03:57:56.585Z,965.83
2016-05-18T03:58:56.587Z,965.83
2016-05-18T03:59:56.590Z,965.87
2016-05-18T04:00:56.576Z,965.86
2016-05-18T04:01:56.579Z,965.86
2016-05-18T04:02:56.582Z,965.88
2016-05-18T04:03:56.585Z,965.91
2016-05-18T04:04:56.587Z,965.91
2016-05-18T04:05:56.575Z,965.9
2016-05-18T04:06:56.578Z,965.86
2016-05-18T04:07:56.830Z,965.88
2016-05-18T04:08:56.583Z,965.85
2016-05-18T04:09:56.586Z,965.87
2016-05-18T04:10:56.572Z,965.87
2016-05-18T04:11:56.575Z,965.88
2016-05-18T04:12:56.578Z,965.86
2016-05-18T04:13:56.565Z,965.91
2016-05-18T04:14:56.567Z,965.9
2016-05-18T04:15:56.570Z,965.9
2016-05-18T04:16:56.572Z,965.94
2016-05-18T04:17:56.560Z,965.93
2016-05-18T04:18:56.563Z,965.95
2016-05-18T04:19:56.565Z,965.97
2016-05-18T04:20:56.569Z,965.95
2016-05-18T04:21:56.555Z,965.97
2016-05-18T04:22:56.558Z,965.92
2016-05-18T04:23:56.560Z,965.98
2016-05-18T04:24:56.563Z,965.96
2016-05-18T04:25:56.566Z,965.97
2016-05-18T04:26:56.568Z,965.94
2016-05-18T04:27:56.557Z,965.96
2016-05-18T04:28:56.559Z,965.92
2016-05-18T04:29:56.561Z,965.91
2016-05-18T04:30:56.579Z,965.93
2016-05-18T04:31:56.550Z,965.93
2016-05-18T04:32:56.553Z,965.92
2016-05-18T04:33:56.556Z,965.93
2016-05-18T04:34:56.559Z,965.91
2016-05-18T04:35:56.562Z,965.89
2016-05-18T04:36:56.565Z,965.92
2016-05-18T04:37:56.551Z,965.92
2016-05-18T04:38:56.554Z,965.91
2016-05-18T04:39:56.557Z,965.89
2016-05-18T04:40:56.559Z,965.89
2016-05-18T04:41:56.547Z,965.89
2016-05-18T04:42:56.549Z,965.9
2016-05-18T04:43:56.552Z,965.87
2016-05-18T04:44:56.555Z,965.89
2016-05-18T04:45:56.542Z,965.89
2016-05-18T04:46:56.544Z,965.83
2016-05-18T04:47:56.547Z,965.85
2016-05-18T04:48:56.549Z,965.88
2016-05-18T04:49:56.552Z,965.88
2016-05-18T04:50:56.555Z,965.88
2016-05-18T04:51:56.542Z,965.83
2016-05-18T04:52:56.545Z,965.86
2016-05-18T04:53:56.547Z,965.83
2016-05-18T04:54:56.550Z,965.86
2016-05-18T04:55:56.537Z,965.85
2016-05-18T04:56:56.540Z,965.87
2016-05-18T04:57:56.557Z,965.88
2016-05-18T04:58:56.546Z,965.85
2016-05-18T04:59:56.563Z,965.84
2016-05-18T05:00:56.551Z,965.89
2016-05-18T05:01:56.554Z,965.83
2016-05-18T05:02:56.556Z,965.82
2016-05-18T05:03:56.559Z,965.8
2016-05-18T05:04:56.561Z,965.8
2016-05-18T05:05:56.548Z,965.81
2016-05-18T05:06:56.551Z,965.75
2016-05-18T05:07:56.788Z,965.82
2016-05-18T05:08:56.556Z,965.85
2016-05-18T05:09:56.560Z,965.82
2016-05-18T05:10:56.561Z,965.86
2016-05-18T05:11:56.564Z,965.89
2016-05-18T05:12:56.552Z,965.88
2016-05-18T05:13:56.570Z,965.88
2016-05-18T05:14:56.572Z,965.9
2016-05-18T05:15:56.575Z,965.89
2016-05-18T05:16:56.578Z,965.86
2016-05-18T05:17:56.566Z,965.9
2016-05-18T05:18:56.584Z,965.88
2016-05-18T05:19:56.571Z,965.92
2016-05-18T05:20:56.573Z,965.9
2016-05-18T05:21:56.591Z,965.92
2016-05-18T05:22:56.579Z,965.91
2016-05-18T05:23:56.582Z,965.95
2016-05-18T05:24:56.585Z,965.9
2016-05-18T05:25:56.602Z,965.97
2016-05-18T05:26:56.605Z,965.94
2016-05-18T05:27:56.607Z,965.97
2016-05-18T05:28:56.611Z,965.97
2016-05-18T05:29:56.613Z,965.96
2016-05-18T05:30:56.615Z,965.99
2016-05-18T05:31:56.618Z,965.99
2016-05-18T05:32:56.621Z,966
2016-05-18T05:33:56.624Z,966.03
2016-05-18T05:34:56.626Z,965.98
2016-05-18T05:35:56.629Z,965.99
2016-05-18T05:36:56.631Z,965.99
2016-05-18T05:37:56.635Z,966.01
2016-05-18T05:38:56.637Z,966.01
2016-05-18T05:39:56.656Z,966.01
2016-05-18T05:40:56.659Z,966.04
2016-05-18T05:41:56.645Z,966
2016-05-18T05:42:56.664Z,965.99
2016-05-18T05:43:56.666Z,966
2016-05-18T05:44:56.669Z,966.02
2016-05-18T05:45:56.672Z,966.04
2016-05-18T05:46:56.674Z,966.04
2016-05-18T05:47:56.677Z,966.04
2016-05-18T05:48:56.680Z,965.97
2016-05-18T05:49:56.697Z,966.04
2016-05-18T05:50:56.700Z,966.01
2016-05-18T05:51:56.703Z,966.05
2016-05-18T05:52:56.799Z,965.97
2016-05-18T05:53:56.708Z,965.96
2016-05-18T05:54:56.711Z,965.97
2016-05-18T05:55:56.714Z,965.98
2016-05-18T05:56:56.717Z,965.92
2016-05-18T05:57:56.736Z,965.98
2016-05-18T05:58:56.738Z,965.91
2016-05-18T05:59:56.740Z,965.9
2016-05-18T06:00:56.743Z,965.95
2016-05-18T06:01:56.746Z,965.95
2016-05-18T06:02:56.765Z,965.94
2016-05-18T06:03:56.767Z,965.93
2016-05-18T06:04:56.770Z,965.93
2016-05-18T06:05:56.773Z,965.93
2016-05-18T06:06:56.775Z,965.93
2016-05-18T06:07:56.793Z,965.9
2016-05-18T06:08:56.796Z,965.94
2016-05-18T06:09:56.814Z,965.89
2016-05-18T06:10:56.801Z,965.91
2016-05-18T06:11:56.820Z,965.86
2016-05-18T06:12:56.822Z,965.84
2016-05-18T06:13:56.825Z,965.86
2016-05-18T06:14:56.827Z,965.84
2016-05-18T06:15:56.846Z,965.82
2016-05-18T06:16:56.850Z,965.85
2016-05-18T06:17:56.867Z,965.86
2016-05-18T06:18:56.869Z,965.87
2016-05-18T06:19:56.872Z,965.86
2016-05-18T06:20:56.875Z,965.86
2016-05-18T06:21:56.878Z,965.87
2016-05-18T06:22:56.896Z,965.89
2016-05-18T06:23:56.899Z,965.86
2016-05-18T06:24:56.902Z,965.85
2016-05-18T06:25:56.904Z,965.85
2016-05-18T06:26:56.922Z,965.85
2016-05-18T06:27:56.941Z,965.83
2016-05-18T06:28:56.943Z,965.86
2016-05-18T06:29:56.946Z,965.83
2016-05-18T06:30:56.949Z,965.86
2016-05-18T06:31:56.951Z,965.83
2016-05-18T06:32:56.954Z,965.87
2016-05-18T06:33:56.973Z,965.86
2016-05-18T06:34:56.976Z,965.83
2016-05-18T06:35:56.994Z,965.79
2016-05-18T06:36:56.996Z,965.8
2016-05-18T06:37:57.218Z,965.78
2016-05-18T06:38:57.001Z,965.8
2016-05-18T06:39:57.020Z,965.75
2016-05-18T06:40:57.023Z,965.78
2016-05-18T06:41:57.026Z,965.77
2016-05-18T06:42:57.044Z,965.76
2016-05-18T06:43:57.046Z,965.74
2016-05-18T06:44:57.064Z,965.78
2016-05-18T06:45:57.067Z,965.75
2016-05-18T06:46:57.070Z,965.76
2016-05-18T06:47:57.088Z,965.8
2016-05-18T06:48:57.092Z,965.76
2016-05-18T06:49:57.109Z,965.74
2016-05-18T06:50:57.112Z,965.77
2016-05-18T06:51:57.131Z,965.79
2016-05-18T06:52:57.133Z,965.77
2016-05-18T06:53:57.136Z,965.73
2016-05-18T06:54:57.155Z,965.73
2016-05-18T06:55:57.157Z,965.72
2016-05-18T06:56:57.160Z,965.69
2016-05-18T06:57:57.178Z,965.71
2016-05-18T06:58:57.196Z,965.66
2016-05-18T06:59:57.199Z,965.69
2016-05-18T07:00:57.202Z,965.65
2016-05-18T07:01:57.204Z,965.65
2016-05-18T07:02:57.223Z,965.66
2016-05-18T07:03:57.226Z,965.64
2016-05-18T07:04:57.228Z,965.63
2016-05-18T07:05:57.246Z,965.62
2016-05-18T07:06:57.249Z,965.66
2016-05-18T07:07:57.267Z,965.64
2016-05-18T07:08:57.270Z,965.66
2016-05-18T07:09:57.273Z,965.64
2016-05-18T07:10:57.291Z,965.6
2016-05-18T07:11:57.309Z,965.67
2016-05-18T07:12:57.312Z,965.65
2016-05-18T07:13:57.314Z,965.62
2016-05-18T07:14:57.334Z,965.65
2016-05-18T07:15:57.336Z,965.65
2016-05-18T07:16:57.354Z,965.64
2016-05-18T07:17:57.356Z,965.65
2016-05-18T07:18:57.375Z,965.64
2016-05-18T07:19:57.378Z,965.61
2016-05-18T07:20:57.380Z,965.59
2016-05-18T07:21:57.399Z,965.55
2016-05-18T07:22:57.589Z,965.59
2016-05-18T07:23:57.419Z,965.54
2016-05-18T07:24:57.422Z,965.57
2016-05-18T07:25:57.441Z,965.54
2016-05-18T07:26:57.444Z,965.52
2016-05-18T07:27:57.461Z,965.54
2016-05-18T07:28:57.464Z,965.5
2016-05-18T07:29:57.483Z,965.49
2016-05-18T07:30:57.486Z,965.52
2016-05-18T07:31:57.505Z,965.49
2016-05-18T07:32:57.522Z,965.49
2016-05-18T07:33:57.524Z,965.47
2016-05-18T07:34:57.527Z,965.45
2016-05-18T07:35:57.546Z,965.45
2016-05-18T07:36:57.549Z,965.42
2016-05-18T07:37:57.551Z,965.45
2016-05-18T07:38:57.585Z,965.46
2016-05-18T07:39:57.587Z,965.49
2016-05-18T07:40:57.591Z,965.5
2016-05-18T07:41:57.609Z,965.48
2016-05-18T07:42:57.612Z,965.42
2016-05-18T07:43:57.629Z,965.46
2016-05-18T07:44:57.632Z,965.48
2016-05-18T07:45:57.651Z,965.46
2016-05-18T07:46:57.654Z,965.5
2016-05-18T07:47:57.672Z,965.47
2016-05-18T07:48:57.675Z,965.48
2016-05-18T07:49:57.677Z,965.48
2016-05-18T07:50:57.695Z,965.46
2016-05-18T07:51:57.714Z,965.48
2016-05-18T07:52:58.310Z,965.47
2016-05-18T07:53:57.735Z,965.48
2016-05-18T07:54:57.753Z,965.49
2016-05-18T07:55:57.756Z,965.52
2016-05-18T07:56:57.758Z,965.57
2016-05-18T07:57:57.777Z,965.54
2016-05-18T07:58:57.779Z,965.54
2016-05-18T07:59:57.798Z,965.55
2016-05-18T08:00:57.801Z,965.56
2016-05-18T08:01:57.819Z,965.55
2016-05-18T08:02:57.822Z,965.56
2016-05-18T08:03:57.840Z,965.57
2016-05-18T08:04:57.843Z,965.56
2016-05-18T08:05:57.861Z,965.62
2016-05-18T08:06:57.879Z,965.63
2016-05-18T08:07:57.882Z,965.65
2016-05-18T08:08:57.885Z,965.59
2016-05-18T08:09:57.904Z,965.61
2016-05-18T08:10:57.906Z,965.67
2016-05-18T08:11:57.924Z,965.64
2016-05-18T08:12:57.926Z,965.66
2016-05-18T08:13:57.945Z,965.66
2016-05-18T08:14:57.948Z,965.67
2016-05-18T08:15:57.965Z,965.61
2016-05-18T08:16:57.968Z,965.6
2016-05-18T08:17:57.986Z,965.59
2016-05-18T08:18:58.005Z,965.61
2016-05-18T08:19:58.008Z,965.52
2016-05-18T08:20:58.011Z,965.4
2016-05-18T08:21:58.029Z,965.29
2016-05-18T08:22:58.423Z,965.26
2016-05-18T08:23:58.050Z,965.22
2016-05-18T08:24:58.053Z,965.17
2016-05-18T08:25:58.072Z,965.11
2016-05-18T08:26:58.074Z,965.11
2016-05-18T08:27:58.102Z,965.06
2016-05-18T08:28:58.148Z,965.06
2016-05-18T08:29:58.208Z,965.05
2016-05-18T08:30:58.253Z,965
2016-05-18T08:31:58.313Z,964.99
2016-05-18T08:32:58.351Z,964.99
2016-05-18T08:33:58.369Z,964.97
2016-05-18T08:34:58.404Z,964.97
2016-05-18T08:35:58.437Z,964.92
2016-05-18T08:36:58.456Z,964.9
2016-05-18T08:37:58.471Z,964.92
2016-05-18T08:38:58.494Z,964.93
2016-05-18T08:39:58.502Z,964.89
2016-05-18T08:40:58.510Z,964.89
2016-05-18T08:41:58.534Z,964.87
2016-05-18T08:42:58.558Z,964.87
2016-05-18T08:43:58.563Z,964.87
2016-05-18T08:44:58.583Z,964.86
2016-05-18T08:45:58.588Z,964.85
2016-05-18T08:46:58.609Z,964.84
2016-05-18T08:47:58.613Z,964.84
2016-05-18T08:48:58.617Z,964.79
2016-05-18T08:49:58.635Z,964.78
2016-05-18T08:50:58.638Z,964.76
2016-05-18T08:51:58.658Z,964.78
2016-05-18T08:52:58.661Z,964.74
2016-05-18T08:53:58.680Z,964.75
2016-05-18T08:54:58.683Z,964.76
2016-05-18T08:55:58.686Z,964.77
2016-05-18T08:56:58.688Z,964.71
2016-05-18T08:57:58.706Z,964.74
2016-05-18T08:58:58.708Z,964.76
2016-05-18T08:59:58.727Z,964.71
2016-05-18T09:00:58.730Z,964.75
2016-05-18T09:01:58.748Z,964.72
2016-05-18T09:02:58.751Z,964.72
2016-05-18T09:03:58.769Z,964.76
2016-05-18T09:04:58.772Z,964.73
2016-05-18T09:05:58.774Z,964.73
2016-05-18T09:06:58.840Z,964.74
2016-05-18T09:07:58.795Z,964.72
2016-05-18T09:08:58.798Z,964.68
2016-05-18T09:09:58.816Z,964.68
2016-05-18T09:10:58.819Z,964.7
2016-05-18T09:11:58.837Z,964.66
2016-05-18T09:12:58.840Z,964.65
2016-05-18T09:13:58.843Z,964.62
2016-05-18T09:14:58.845Z,964.66
2016-05-18T09:15:58.848Z,964.64
2016-05-18T09:16:58.867Z,964.6
2016-05-18T09:17:58.870Z,964.62
2016-05-18T09:18:58.887Z,964.63
2016-05-18T09:19:58.890Z,964.69
2016-05-18T09:20:58.892Z,964.6
2016-05-18T09:21:58.911Z,964.62
2016-05-18T09:22:59.226Z,964.58
2016-05-18T09:23:58.917Z,964.58
2016-05-18T09:24:58.919Z,964.56
2016-05-18T09:25:58.938Z,964.52
2016-05-18T09:26:58.941Z,964.5
2016-05-18T09:27:58.943Z,964.52
2016-05-18T09:28:58.946Z,964.49
2016-05-18T09:29:58.963Z,964.46
2016-05-18T09:30:58.966Z,964.45
2016-05-18T09:31:58.969Z,964.46
2016-05-18T09:32:58.988Z,964.42
2016-05-18T09:33:58.990Z,964.43
2016-05-18T09:34:58.993Z,964.42
2016-05-18T09:35:58.996Z,964.44
2016-05-18T09:36:58.998Z,964.38
2016-05-18T09:37:59.001Z,964.37
2016-05-18T09:38:59.019Z,964.41
2016-05-18T09:39:59.022Z,964.4
2016-05-18T09:40:59.024Z,964.36
2016-05-18T09:41:59.027Z,964.41
2016-05-18T09:42:59.045Z,964.39
2016-05-18T09:43:59.048Z,964.37
2016-05-18T09:44:59.051Z,964.37
2016-05-18T09:45:59.070Z,964.34
2016-05-18T09:46:59.072Z,964.34
2016-05-18T09:47:59.075Z,964.35
2016-05-18T09:48:59.078Z,964.33
2016-05-18T09:49:59.080Z,964.38
2016-05-18T09:50:59.083Z,964.37
2016-05-18T09:51:59.101Z,964.37
2016-05-18T09:52:59.089Z,964.32
2016-05-18T09:53:59.106Z,964.37
2016-05-18T09:54:59.109Z,964.31
2016-05-18T09:55:59.112Z,964.3
2016-05-18T09:56:59.115Z,964.32
2016-05-18T09:57:59.133Z,964.35
2016-05-18T09:58:59.136Z,964.32
2016-05-18T09:59:59.138Z,964.31
2016-05-18T10:00:59.141Z,964.32
2016-05-18T10:01:59.144Z,964.32
2016-05-18T10:02:59.147Z,964.26
2016-05-18T10:03:59.149Z,964.25
2016-05-18T10:04:59.152Z,964.25
2016-05-18T10:05:59.171Z,964.25
2016-05-18T10:06:59.173Z,964.23
2016-05-18T10:07:59.176Z,964.2
2016-05-18T10:08:59.194Z,964.19
2016-05-18T10:09:59.196Z,964.21
2016-05-18T10:10:59.199Z,964.19
2016-05-18T10:11:59.202Z,964.19
2016-05-18T10:12:59.204Z,964.16
2016-05-18T10:13:59.207Z,964.18
2016-05-18T10:14:59.226Z,964.16
2016-05-18T10:15:59.228Z,964.16
2016-05-18T10:16:59.215Z,964.2
2016-05-18T10:17:59.234Z,964.15
2016-05-18T10:18:59.237Z,964.15
2016-05-18T10:19:59.239Z,964.18
2016-05-18T10:20:59.242Z,964.14
2016-05-18T10:21:59.245Z,964.09
2016-05-18T10:22:59.262Z,964.11
2016-05-18T10:23:59.453Z,964.08
2016-05-18T10:24:59.268Z,964.05
2016-05-18T10:25:59.270Z,964.04
2016-05-18T10:26:59.273Z,964.05
2016-05-18T10:27:59.276Z,964.04
2016-05-18T10:28:59.278Z,964.04
2016-05-18T10:29:59.281Z,964.02
2016-05-18T10:30:59.284Z,963.97
2016-05-18T10:31:59.303Z,964
2016-05-18T10:32:59.305Z,963.98
2016-05-18T10:33:59.308Z,963.94
2016-05-18T10:34:59.311Z,963.93
2016-05-18T10:35:59.314Z,963.93
2016-05-18T10:36:59.316Z,963.93
2016-05-18T10:37:59.443Z,963.94
2016-05-18T10:38:59.321Z,963.92
2016-05-18T10:39:59.340Z,963.92
2016-05-18T10:40:59.343Z,963.93
2016-05-18T10:41:59.346Z,963.92
2016-05-18T10:42:59.348Z,963.88
2016-05-18T10:43:59.351Z,963.87
2016-05-18T10:44:59.354Z,963.83
2016-05-18T10:45:59.356Z,963.78
2016-05-18T10:46:59.359Z,963.76
2016-05-18T10:47:59.377Z,963.8
2016-05-18T10:48:59.380Z,963.78
2016-05-18T10:49:59.382Z,963.78
2016-05-18T10:50:59.384Z,963.77
2016-05-18T10:51:59.388Z,963.77
2016-05-18T10:52:59.422Z,963.79
2016-05-18T10:53:59.690Z,963.74
2016-05-18T10:54:59.396Z,963.68
2016-05-18T10:55:59.414Z,963.69
2016-05-18T10:56:59.417Z,963.71
2016-05-18T10:57:59.420Z,963.74
2016-05-18T10:58:59.422Z,963.65
2016-05-18T10:59:59.425Z,963.65
2016-05-18T11:00:59.428Z,963.62
2016-05-18T11:01:59.431Z,963.64
2016-05-18T11:02:59.433Z,963.6
2016-05-18T11:03:59.436Z,963.59
2016-05-18T11:04:59.454Z,963.57
2016-05-18T11:05:59.457Z,963.58
2016-05-18T11:06:59.460Z,963.55
2016-05-18T11:07:59.463Z,963.51
2016-05-18T11:08:59.465Z,963.49
2016-05-18T11:09:59.467Z,963.52
2016-05-18T11:10:59.471Z,963.48
2016-05-18T11:11:59.473Z,963.48
2016-05-18T11:12:59.476Z,963.45
2016-05-18T11:13:59.479Z,963.5
2016-05-18T11:14:59.496Z,963.45
2016-05-18T11:15:59.498Z,963.45
2016-05-18T11:16:59.502Z,963.47
2016-05-18T11:17:59.504Z,963.43
2016-05-18T11:18:59.507Z,963.41
2016-05-18T11:19:59.509Z,963.38
2016-05-18T11:20:59.512Z,963.41
2016-05-18T11:21:59.515Z,963.4
2016-05-18T11:22:59.690Z,963.42
2016-05-18T11:23:59.520Z,963.43
2016-05-18T11:24:59.523Z,963.37
2016-05-18T11:25:59.542Z,963.39
2016-05-18T11:26:59.544Z,963.32
2016-05-18T11:27:59.548Z,963.29
2016-05-18T11:28:59.550Z,963.3
2016-05-18T11:29:59.552Z,963.32
2016-05-18T11:30:59.555Z,963.29
2016-05-18T11:31:59.558Z,963.28
2016-05-18T11:32:59.560Z,963.25
2016-05-18T11:33:59.563Z,963.21
2016-05-18T11:34:59.581Z,963.26
2016-05-18T11:35:59.584Z,963.22
2016-05-18T11:36:59.586Z,963.23
2016-05-18T11:37:59.589Z,963.23
2016-05-18T11:38:59.592Z,963.18
2016-05-18T11:39:59.594Z,963.19
2016-05-18T11:40:59.597Z,963.21
2016-05-18T11:41:59.600Z,963.18
2016-05-18T11:42:59.603Z,963.15
2016-05-18T11:43:59.605Z,963.1
2016-05-18T11:44:59.608Z,963.11
2016-05-18T11:45:59.610Z,963.1
2016-05-18T11:46:59.629Z,963.03
2016-05-18T11:47:59.616Z,963.01
2016-05-18T11:48:59.634Z,963
2016-05-18T11:49:59.638Z,962.96
2016-05-18T11:50:59.640Z,963.01
2016-05-18T11:51:59.642Z,963
2016-05-18T11:52:59.646Z,963.01
2016-05-18T11:53:59.648Z,962.98
2016-05-18T11:54:59.651Z,962.97
2016-05-18T11:55:59.669Z,962.93
2016-05-18T11:56:59.672Z,962.92
2016-05-18T11:57:59.659Z,962.91
2016-05-18T11:58:59.677Z,962.87
2016-05-18T11:59:59.680Z,962.85
2016-05-18T12:00:59.683Z,962.87
2016-05-18T12:01:59.685Z,962.89
2016-05-18T12:02:59.688Z,962.89
2016-05-18T12:03:59.691Z,962.81
2016-05-18T12:04:59.694Z,962.83
2016-05-18T12:05:59.696Z,962.81
2016-05-18T12:06:59.714Z,962.77
2016-05-18T12:07:59.764Z,962.78
2016-05-18T12:08:59.704Z,962.73
2016-05-18T12:09:59.722Z,962.75
2016-05-18T12:10:59.725Z,962.78
2016-05-18T12:11:59.728Z,962.77
2016-05-18T12:12:59.730Z,962.74
2016-05-18T12:13:59.733Z,962.74
2016-05-18T12:14:59.735Z,962.74
2016-05-18T12:15:59.738Z,962.69
2016-05-18T12:16:59.757Z,962.72
2016-05-18T12:17:59.743Z,962.69
2016-05-18T12:18:59.747Z,962.67
2016-05-18T12:20:00.015Z,962.71
2016-05-18T12:20:59.767Z,962.67
2016-05-18T12:21:59.771Z,962.62
2016-05-18T12:22:59.976Z,962.67
2016-05-18T12:23:59.775Z,962.66
2016-05-18T12:25:02.795Z,962.63
2016-05-18T12:25:59.781Z,962.6
2016-05-18T12:26:59.784Z,962.61
2016-05-18T12:27:59.786Z,962.59
2016-05-18T12:28:59.789Z,962.58
2016-05-18T12:30:05.073Z,962.55
2016-05-18T12:30:59.810Z,962.56
2016-05-18T12:31:59.813Z,962.58
2016-05-18T12:32:59.816Z,962.59